createdAt,value
2023-03-02T00:01:10.262Z,17.27
2023-03-02T00:03:39.713Z,15.97
2023-03-02T00:06:07.314Z,15.65
2023-03-02T00:08:35.040Z,15.23
2023-03-02T00:11:02.353Z,12.45
2023-03-02T00:13:30.654Z,16.75
2023-03-02T00:15:58.017Z,15.90
2023-03-02T00:18:25.278Z,13.82
2023-03-02T00:20:52.559Z,14.40
2023-03-02T00:23:19.801Z,17.80
2023-03-02T00:25:47.093Z,14.85
2023-03-02T00:28:14.312Z,14.52
2023-03-02T00:30:41.701Z,18.42
2023-03-02T00:33:09.195Z,14.68
2023-03-02T00:35:40.455Z,13.52
2023-03-02T00:38:08.380Z,15.75
2023-03-02T00:40:36.262Z,17.70
2023-03-02T00:43:06.438Z,17.90
2023-03-02T00:45:33.778Z,19.45
2023-03-02T00:48:01.430Z,15.98
2023-03-02T00:50:28.962Z,17.42
2023-03-02T00:52:56.652Z,15.95
2023-03-02T00:55:27.713Z,13.32
2023-03-02T00:57:55.218Z,14.10
2023-03-02T01:00:23.922Z,15.57
2023-03-02T01:02:51.449Z,15.65
2023-03-02T01:05:18.802Z,16.58
2023-03-02T01:07:46.060Z,11.25
2023-03-02T01:10:13.586Z,17.33
2023-03-02T01:12:41.169Z,15.45
2023-03-02T01:15:08.909Z,17.83
2023-03-02T01:17:36.344Z,11.30
2023-03-02T01:20:04.926Z,15.88
2023-03-02T01:22:32.142Z,11.63
2023-03-02T01:24:59.282Z,14.73
2023-03-02T01:27:26.478Z,17.27
2023-03-02T01:29:53.641Z,16.90
2023-03-02T01:32:20.883Z,12.13
2023-03-02T01:34:48.092Z,13.38
2023-03-02T01:37:15.291Z,14.40
2023-03-02T01:39:42.487Z,15.40
2023-03-02T01:42:09.700Z,11.10
2023-03-02T01:44:36.900Z,12.52
2023-03-02T01:47:05.582Z,14.35
2023-03-02T01:49:38.273Z,15.15
2023-03-02T01:52:05.516Z,12.27
2023-03-02T01:54:32.699Z,13.85
2023-03-02T01:57:02.499Z,15.10
2023-03-02T01:59:31.149Z,15.18
2023-03-02T02:01:59.677Z,15.65
2023-03-02T02:04:27.855Z,13.60
2023-03-02T02:07:01.465Z,14.35
2023-03-02T02:09:31.002Z,14.30
2023-03-02T02:11:58.230Z,13.02
2023-03-02T02:14:25.748Z,10.98
2023-03-02T02:16:53.326Z,9.05
2023-03-02T02:19:20.547Z,15.43
2023-03-02T02:21:47.803Z,13.32
2023-03-02T02:24:21.028Z,11.23
2023-03-02T02:29:23.070Z,14.43
2023-03-02T02:32:02.642Z,16.00
2023-03-02T02:34:32.511Z,15.27
2023-03-02T02:37:12.646Z,16.38
2023-03-02T02:39:41.743Z,14.77
2023-03-02T02:42:13.270Z,14.57
2023-03-02T02:44:40.658Z,17.60
2023-03-02T02:47:16.003Z,12.50
2023-03-02T02:49:43.222Z,18.40
2023-03-02T02:52:13.653Z,14.93
2023-03-02T02:54:41.011Z,14.48
2023-03-02T02:57:08.467Z,17.20
2023-03-02T02:59:43.253Z,13.48
2023-03-02T03:02:27.184Z,12.55
2023-03-02T03:05:03.363Z,17.95
2023-03-02T03:07:31.352Z,15.75
2023-03-02T03:10:02.669Z,18.10
2023-03-02T03:12:30.453Z,14.55
2023-03-02T03:14:59.575Z,15.65
2023-03-02T03:17:26.828Z,14.82
2023-03-02T03:19:54.045Z,17.00
2023-03-02T03:22:21.315Z,17.73
2023-03-02T03:24:48.517Z,13.05
2023-03-02T03:27:16.666Z,15.35
2023-03-02T03:29:45.185Z,14.20
2023-03-02T03:32:12.488Z,12.35
2023-03-02T03:34:40.990Z,12.25
2023-03-02T03:37:10.100Z,15.25
2023-03-02T03:39:37.525Z,12.32
2023-03-02T03:42:05.474Z,18.00
2023-03-02T03:44:32.831Z,14.63
2023-03-02T03:47:00.480Z,15.07
2023-03-02T03:49:28.105Z,12.05
2023-03-02T03:51:55.276Z,17.10
2023-03-02T03:54:22.485Z,14.52
2023-03-02T03:56:51.135Z,16.38
2023-03-02T03:59:20.169Z,26.10
2023-03-02T04:01:53.276Z,48.78
2023-03-02T04:04:26.473Z,15.90
2023-03-02T04:09:20.802Z,19.40
2023-03-02T04:11:49.481Z,13.10
2023-03-02T04:14:17.471Z,12.52
2023-03-02T04:16:45.071Z,43.92
2023-03-02T04:19:12.809Z,46.45
2023-03-02T04:21:41.436Z,38.15
2023-03-02T04:24:09.753Z,24.85
2023-03-02T04:26:37.516Z,22.92
2023-03-02T04:29:05.091Z,38.20
2023-03-02T04:31:32.354Z,32.35
2023-03-02T04:33:59.855Z,24.15
2023-03-02T04:36:27.141Z,19.33
2023-03-02T04:38:54.569Z,13.40
2023-03-02T04:41:22.432Z,13.07
2023-03-02T04:43:49.596Z,14.30
2023-03-02T04:46:19.156Z,18.38
2023-03-02T04:48:46.448Z,21.05
2023-03-02T04:51:24.772Z,18.80
2023-03-02T04:53:53.339Z,21.30
2023-03-02T04:56:20.757Z,19.85
2023-03-02T04:58:48.025Z,27.60
2023-03-02T05:01:16.235Z,21.85
2023-03-02T05:03:43.461Z,20.45
2023-03-02T05:06:10.855Z,25.00
2023-03-02T05:08:38.699Z,21.65
2023-03-02T05:11:07.870Z,24.92
2023-03-02T05:13:36.162Z,19.25
2023-03-02T05:16:03.640Z,16.38
2023-03-02T05:18:31.337Z,16.58
2023-03-02T05:20:59.646Z,23.52
2023-03-02T05:23:27.626Z,14.82
2023-03-02T05:25:55.929Z,20.75
2023-03-02T05:28:24.109Z,24.40
2023-03-02T05:30:51.671Z,23.05
2023-03-02T05:33:19.239Z,25.25
2023-03-02T05:35:46.816Z,20.88
2023-03-02T05:38:14.045Z,19.80
2023-03-02T05:40:42.499Z,18.13
2023-03-02T05:43:10.388Z,18.35
2023-03-02T05:45:39.167Z,15.10
2023-03-02T05:48:08.661Z,19.75
2023-03-02T05:50:38.283Z,20.67
2023-03-02T05:53:05.746Z,16.88
2023-03-02T05:55:36.929Z,23.58
2023-03-02T05:58:13.638Z,19.80
2023-03-02T06:00:49.846Z,22.55
2023-03-02T06:03:25.833Z,21.67
2023-03-02T06:05:57.584Z,23.77
2023-03-02T06:08:28.390Z,22.05
2023-03-02T06:10:59.122Z,26.42
2023-03-02T06:13:32.458Z,22.75
2023-03-02T06:16:00.270Z,26.65
2023-03-02T06:18:27.590Z,27.77
2023-03-02T06:20:54.839Z,31.40
2023-03-02T06:23:22.132Z,33.88
2023-03-02T06:25:49.380Z,27.30
2023-03-02T06:28:19.269Z,31.20
2023-03-02T06:30:48.765Z,34.03
2023-03-02T06:33:16.971Z,32.38
2023-03-02T06:35:44.553Z,30.02
2023-03-02T06:38:11.860Z,31.17
2023-03-02T06:40:39.054Z,35.70
2023-03-02T06:43:06.226Z,38.10
2023-03-02T06:45:37.825Z,38.03
2023-03-02T06:48:05.496Z,34.15
2023-03-02T06:50:33.083Z,53.00
2023-03-02T06:53:00.521Z,48.88
2023-03-02T06:55:27.716Z,54.42
2023-03-02T06:57:55.027Z,50.28
2023-03-02T07:00:27.940Z,49.28
2023-03-02T07:02:56.051Z,52.17
2023-03-02T07:05:24.433Z,47.88
2023-03-02T07:07:52.051Z,51.72
2023-03-02T07:10:19.927Z,47.03
2023-03-02T07:12:47.236Z,41.72
2023-03-02T07:15:14.718Z,48.10
2023-03-02T07:17:43.357Z,47.72
2023-03-02T07:20:11.500Z,44.03
2023-03-02T07:22:38.859Z,44.25
2023-03-02T07:25:06.589Z,37.63
2023-03-02T07:27:33.890Z,40.08
2023-03-02T07:30:01.249Z,38.15
2023-03-02T07:32:28.889Z,46.03
2023-03-02T07:34:56.231Z,40.17
2023-03-02T07:37:23.569Z,43.85
2023-03-02T07:39:51.008Z,47.28
2023-03-02T07:42:18.336Z,37.92
2023-03-02T07:44:45.534Z,38.67
2023-03-02T07:47:12.898Z,36.90
2023-03-02T07:49:40.221Z,35.33
2023-03-02T07:52:07.491Z,40.03
2023-03-02T07:54:34.788Z,37.28
2023-03-02T07:57:02.146Z,33.00
2023-03-02T07:59:31.948Z,30.73
2023-03-02T08:02:02.174Z,37.53
2023-03-02T08:04:29.348Z,31.55
2023-03-02T08:06:56.693Z,31.50
2023-03-02T08:09:23.910Z,38.25
2023-03-02T08:11:51.187Z,37.60
2023-03-02T08:14:20.513Z,27.65
2023-03-02T08:16:47.832Z,45.75
2023-03-02T08:19:15.116Z,32.28
2023-03-02T08:21:42.482Z,33.90
2023-03-02T08:24:10.484Z,34.15
2023-03-02T08:26:37.698Z,32.88
2023-03-02T08:29:05.184Z,31.73
2023-03-02T08:31:32.824Z,33.83
2023-03-02T08:34:00.600Z,32.45
2023-03-02T08:36:27.892Z,34.40
2023-03-02T08:38:55.313Z,31.70
2023-03-02T08:41:23.908Z,35.50
2023-03-02T08:43:54.302Z,30.60
2023-03-02T08:46:21.743Z,37.08
2023-03-02T08:48:51.212Z,36.88
2023-03-02T08:51:19.888Z,33.28
2023-03-02T08:53:48.163Z,32.22
2023-03-02T08:56:19.829Z,30.90
2023-03-02T08:58:48.215Z,34.63
2023-03-02T09:01:20.763Z,31.17
2023-03-02T09:03:49.646Z,32.13
2023-03-02T09:06:20.018Z,33.63
2023-03-02T09:08:57.025Z,34.28
2023-03-02T09:11:24.693Z,32.60
2023-03-02T09:13:54.422Z,32.60
2023-03-02T09:16:21.992Z,37.30
2023-03-02T09:18:49.370Z,35.72
2023-03-02T09:21:17.207Z,31.23
2023-03-02T09:23:44.870Z,35.53
2023-03-02T09:26:12.302Z,34.05
2023-03-02T09:28:44.734Z,32.60
2023-03-02T09:34:00.484Z,31.08
2023-03-02T09:36:29.855Z,35.95
2023-03-02T09:38:59.513Z,27.38
2023-03-02T09:41:27.101Z,24.63
2023-03-02T09:47:00.795Z,30.60
2023-03-02T09:49:51.744Z,22.27
2023-03-02T09:52:32.815Z,29.17
2023-03-02T09:55:12.964Z,29.98
2023-03-02T09:57:40.505Z,25.55
2023-03-02T10:00:20.526Z,25.92
2023-03-02T10:03:02.482Z,28.92
2023-03-02T10:05:37.073Z,27.23
2023-03-02T10:08:04.312Z,23.30
2023-03-02T10:10:34.567Z,28.40
2023-03-02T10:13:01.798Z,25.60
2023-03-02T10:15:38.362Z,28.80
2023-03-02T10:18:17.107Z,25.73
2023-03-02T10:21:07.193Z,23.95
2023-03-02T10:23:40.409Z,24.08
2023-03-02T10:28:39.873Z,21.52
2023-03-02T10:31:11.973Z,26.27
2023-03-02T10:33:42.105Z,22.75
2023-03-02T10:36:26.804Z,23.00
2023-03-02T10:38:54.974Z,18.70
2023-03-02T10:41:24.865Z,23.45
2023-03-02T10:43:59.084Z,22.70
2023-03-02T10:46:26.572Z,22.35
2023-03-02T10:48:56.436Z,25.17
2023-03-02T10:51:26.744Z,21.70
2023-03-02T10:54:13.536Z,20.67
2023-03-02T10:56:44.998Z,20.52
2023-03-02T10:59:27.668Z,21.15
2023-03-02T11:02:14.643Z,17.88
2023-03-02T11:04:42.033Z,20.70
2023-03-02T11:07:20.465Z,19.08
2023-03-02T11:10:04.883Z,18.83
2023-03-02T11:12:35.191Z,17.55
2023-03-02T11:15:22.690Z,19.52
2023-03-02T11:17:52.717Z,17.13
2023-03-02T11:20:26.049Z,18.98
2023-03-02T11:23:12.056Z,19.15
2023-03-02T11:25:41.161Z,18.98
2023-03-02T11:28:47.008Z,17.30
2023-03-02T11:31:17.330Z,20.60
2023-03-02T11:34:11.580Z,17.13
2023-03-02T11:36:50.553Z,18.45
2023-03-02T11:39:21.403Z,17.55
2023-03-02T11:41:48.956Z,18.23
2023-03-02T11:44:18.350Z,18.88
2023-03-02T11:46:51.954Z,18.98
2023-03-02T11:49:22.605Z,18.63
2023-03-02T11:51:58.442Z,18.33
2023-03-02T11:54:37.287Z,19.63
2023-03-02T11:57:04.863Z,17.27
2023-03-02T11:59:32.868Z,16.25
2023-03-02T12:02:01.327Z,19.25
2023-03-02T12:04:32.374Z,20.33
2023-03-02T12:07:03.306Z,15.43
2023-03-02T12:09:31.346Z,18.45
2023-03-02T12:12:17.515Z,17.05
2023-03-02T12:14:44.764Z,17.35
2023-03-02T12:17:27.257Z,18.63
2023-03-02T12:19:56.104Z,20.08
2023-03-02T12:22:30.962Z,17.45
2023-03-02T12:25:06.861Z,19.25
2023-03-02T12:27:35.330Z,16.88
2023-03-02T12:30:24.621Z,19.05
2023-03-02T12:33:10.687Z,19.02
2023-03-02T12:35:38.589Z,18.52
2023-03-02T12:38:20.159Z,18.75
2023-03-02T12:41:06.564Z,18.67
2023-03-02T12:43:35.027Z,18.52
2023-03-02T12:46:21.499Z,18.63
2023-03-02T12:49:10.768Z,20.02
2023-03-02T12:51:56.802Z,18.15
2023-03-02T12:54:25.967Z,17.50
2023-03-02T12:57:03.905Z,17.60
2023-03-02T12:59:31.374Z,17.98
2023-03-02T13:02:25.052Z,16.67
2023-03-02T13:04:58.595Z,17.45
2023-03-02T13:07:30.834Z,16.35
2023-03-02T13:10:01.183Z,19.65
2023-03-02T13:12:29.684Z,17.80
2023-03-02T13:14:58.668Z,20.10
2023-03-02T13:17:38.567Z,20.08
2023-03-02T13:20:06.308Z,21.27
2023-03-02T13:22:34.038Z,23.45
2023-03-02T13:25:03.669Z,20.13
2023-03-02T13:28:06.235Z,24.20
2023-03-02T13:30:48.196Z,21.85
2023-03-02T13:33:21.880Z,23.13
2023-03-02T13:35:49.429Z,22.40
2023-03-02T13:38:20.651Z,18.10
2023-03-02T13:40:49.848Z,20.23
2023-03-02T13:43:20.486Z,16.33
2023-03-02T13:45:55.697Z,17.75
2023-03-02T13:48:23.310Z,18.70
2023-03-02T13:51:01.391Z,18.25
2023-03-02T13:53:30.366Z,18.50
2023-03-02T13:56:00.297Z,17.33
2023-03-02T13:58:29.284Z,18.35
2023-03-02T14:00:56.805Z,17.75
2023-03-02T14:03:30.960Z,18.90
2023-03-02T14:06:01.262Z,21.45
2023-03-02T14:08:28.600Z,19.60
2023-03-02T14:10:59.734Z,22.30
2023-03-02T14:13:36.430Z,19.48
2023-03-02T14:16:03.960Z,18.35
2023-03-02T14:18:34.321Z,17.67
2023-03-02T14:21:01.833Z,17.17
2023-03-02T14:23:29.250Z,17.70
2023-03-02T14:25:57.638Z,21.40
2023-03-02T14:28:37.665Z,18.10
2023-03-02T14:31:05.176Z,19.10
2023-03-02T14:33:32.666Z,17.45
2023-03-02T14:35:59.918Z,18.15
2023-03-02T14:38:27.958Z,22.20
2023-03-02T14:40:55.510Z,20.52
2023-03-02T14:43:23.975Z,19.83
2023-03-02T14:45:52.331Z,21.33
2023-03-02T14:48:19.796Z,22.77
2023-03-02T14:50:48.199Z,20.52
2023-03-02T14:53:20.629Z,20.88
2023-03-02T14:55:47.999Z,22.83
2023-03-02T14:58:20.174Z,22.70
2023-03-02T15:00:48.464Z,21.00
2023-03-02T15:03:19.292Z,21.35
2023-03-02T15:06:00.370Z,22.67
2023-03-02T15:08:28.313Z,24.38
2023-03-02T15:10:55.560Z,22.15
2023-03-02T15:13:22.975Z,22.75
2023-03-02T15:15:50.477Z,25.45
2023-03-02T15:18:19.828Z,24.25
2023-03-02T15:20:47.141Z,24.75
2023-03-02T15:23:14.365Z,27.40
2023-03-02T15:25:43.010Z,24.13
2023-03-02T15:28:10.270Z,24.95
2023-03-02T15:30:37.367Z,25.35
2023-03-02T15:33:04.596Z,27.15
2023-03-02T15:35:31.865Z,28.55
2023-03-02T15:38:02.502Z,29.25
2023-03-02T15:40:29.708Z,25.60
2023-03-02T15:42:56.974Z,26.70
2023-03-02T15:45:24.271Z,27.42
2023-03-02T15:47:51.640Z,28.08
2023-03-02T15:50:18.924Z,29.58
2023-03-02T15:52:46.082Z,32.65
2023-03-02T15:55:15.564Z,31.48
2023-03-02T15:57:42.802Z,31.58
2023-03-02T16:00:13.333Z,32.38
2023-03-02T16:02:41.012Z,36.58
2023-03-02T16:05:08.783Z,32.00
2023-03-02T16:07:37.236Z,35.22
2023-03-02T16:10:04.674Z,38.45
2023-03-02T16:12:31.933Z,36.08
2023-03-02T16:14:59.156Z,34.70
2023-03-02T16:17:26.258Z,36.55
2023-03-02T16:19:53.498Z,32.78
2023-03-02T16:22:20.697Z,33.08
2023-03-02T16:24:49.486Z,36.92
2023-03-02T16:27:16.732Z,29.08
2023-03-02T16:29:46.077Z,34.10
2023-03-02T16:32:13.358Z,36.78
2023-03-02T16:34:40.683Z,35.95
2023-03-02T16:37:07.920Z,33.58
2023-03-02T16:39:35.198Z,38.67
2023-03-02T16:42:02.583Z,36.95
2023-03-02T16:44:29.842Z,42.42
2023-03-02T16:46:57.596Z,38.58
2023-03-02T16:49:24.986Z,42.15
2023-03-02T16:51:56.604Z,38.05
2023-03-02T16:54:23.870Z,36.67
2023-03-02T16:56:51.173Z,38.60
2023-03-02T16:59:18.960Z,43.85
2023-03-02T17:01:46.652Z,39.08
2023-03-02T17:04:14.057Z,43.17
2023-03-02T17:06:59.476Z,51.47
2023-03-02T17:09:28.048Z,44.63
2023-03-02T17:11:55.335Z,52.38
2023-03-02T17:14:22.535Z,68.25
2023-03-02T17:16:49.697Z,70.82
2023-03-02T17:19:16.952Z,68.10
2023-03-02T17:21:47.499Z,73.38
2023-03-02T17:24:15.105Z,68.13
2023-03-02T17:29:25.998Z,74.30
2023-03-02T17:31:53.721Z,80.65
2023-03-02T17:34:21.280Z,75.03
2023-03-02T17:36:54.844Z,83.40
2023-03-02T17:39:23.564Z,73.70
2023-03-02T17:41:56.249Z,76.20
2023-03-02T17:44:24.265Z,71.47
2023-03-02T17:46:51.868Z,77.90
2023-03-02T17:49:22.261Z,98.07
2023-03-02T17:51:53.475Z,80.38
2023-03-02T17:54:28.840Z,78.80
2023-03-02T17:57:12.594Z,94.40
2023-03-02T17:59:47.461Z,90.88
2023-03-02T18:02:27.232Z,83.65
2023-03-02T18:13:28.060Z,76.35
2023-03-02T18:15:57.242Z,75.43
2023-03-02T18:18:32.063Z,81.45
2023-03-02T18:21:14.197Z,74.80
2023-03-02T18:23:57.048Z,85.57
2023-03-02T18:33:21.808Z,75.75
2023-03-02T18:37:16.916Z,75.82
2023-03-02T18:39:03.961Z,103.68
2023-03-02T18:41:42.009Z,72.88
2023-03-02T18:44:45.887Z,85.63
2023-03-02T18:47:35.652Z,73.82
2023-03-02T18:56:46.911Z,76.85
2023-03-02T19:02:08.132Z,60.45
2023-03-02T19:04:48.942Z,51.65
2023-03-02T19:07:30.604Z,53.90
2023-03-02T19:11:00.377Z,45.35
2023-03-02T19:13:17.455Z,60.95
2023-03-02T19:16:11.590Z,48.00
2023-03-02T19:18:47.673Z,49.00
2023-03-02T19:21:30.061Z,52.53
2023-03-02T19:24:03.825Z,55.92
2023-03-02T19:26:35.096Z,55.65
2023-03-02T19:29:21.734Z,47.75
2023-03-02T19:31:52.264Z,49.60
2023-03-02T19:37:15.112Z,53.63
2023-03-02T19:39:49.441Z,52.13
2023-03-02T19:42:20.815Z,58.80
2023-03-02T19:44:55.344Z,60.28
2023-03-02T19:47:38.926Z,79.85
2023-03-02T19:50:15.549Z,58.88
2023-03-02T19:52:45.524Z,72.10
2023-03-02T19:55:32.267Z,95.97
2023-03-02T19:58:12.681Z,68.93
2023-03-02T20:00:53.868Z,69.55
2023-03-02T20:03:48.032Z,69.90
2023-03-02T20:06:35.714Z,63.30
2023-03-02T20:09:15.043Z,58.08
2023-03-02T20:11:54.201Z,58.17
2023-03-02T20:14:36.725Z,57.80
2023-03-02T20:17:06.714Z,55.83
2023-03-02T20:19:38.395Z,46.85
2023-03-02T20:22:37.326Z,53.53
2023-03-02T20:25:15.624Z,53.38
2023-03-02T20:27:53.732Z,52.22
2023-03-02T20:30:41.131Z,52.47
2023-03-02T20:33:11.842Z,46.63
2023-03-02T20:35:44.772Z,64.47
2023-03-02T20:38:32.024Z,47.17
2023-03-02T20:41:18.592Z,50.05
2023-03-02T20:44:31.271Z,52.20
2023-03-02T20:47:15.585Z,48.75
2023-03-02T20:50:02.231Z,54.67
2023-03-02T20:52:55.477Z,60.33
2023-03-02T20:55:50.236Z,47.00
2023-03-02T20:58:23.908Z,38.28
2023-03-02T21:01:07.444Z,35.03
2023-03-02T21:03:51.882Z,37.00
2023-03-02T21:06:20.052Z,33.97
2023-03-02T21:08:49.536Z,34.08
2023-03-02T21:11:43.245Z,33.10
2023-03-02T21:14:30.976Z,35.05
2023-03-02T21:17:06.041Z,27.88
2023-03-02T21:19:41.914Z,34.42
2023-03-02T21:22:10.445Z,33.33
2023-03-02T21:30:30.636Z,31.73
2023-03-02T21:33:09.507Z,27.75
2023-03-02T21:38:35.368Z,28.48
2023-03-02T21:43:58.562Z,27.45
2023-03-02T21:46:26.742Z,31.45
2023-03-02T21:49:00.451Z,31.60
2023-03-02T21:51:28.466Z,25.98
2023-03-02T21:53:56.032Z,33.78
2023-03-02T21:56:30.702Z,34.22
2023-03-02T21:59:20.608Z,32.05
2023-03-02T22:01:53.462Z,34.78
2023-03-02T22:04:35.536Z,39.53
2023-03-02T22:07:03.259Z,37.63
2023-03-02T22:09:35.967Z,35.30
2023-03-02T22:12:08.020Z,48.42
2023-03-02T22:14:35.549Z,50.25
2023-03-02T22:17:04.222Z,63.20
2023-03-02T22:19:35.260Z,72.32
2023-03-02T22:22:17.632Z,70.53
2023-03-02T22:24:50.785Z,91.15
2023-03-02T22:29:51.997Z,77.15
2023-03-02T22:32:30.433Z,72.35
2023-03-02T22:35:03.136Z,65.40
2023-03-02T22:37:36.440Z,67.82
2023-03-02T22:40:25.715Z,83.45
2023-03-02T22:43:08.131Z,57.47
2023-03-02T22:45:38.303Z,52.90
2023-03-02T22:48:15.028Z,51.63
2023-03-02T22:50:59.520Z,54.67
2023-03-02T22:53:38.284Z,46.95
2023-03-02T22:56:25.667Z,46.83
2023-03-02T22:58:57.838Z,46.75
2023-03-02T23:01:29.076Z,50.80
2023-03-02T23:04:24.025Z,41.25
2023-03-02T23:06:58.062Z,44.97
2023-03-02T23:12:50.847Z,44.97
2023-03-02T23:15:46.624Z,50.55
2023-03-02T23:18:40.454Z,54.90
2023-03-02T23:21:33.990Z,48.58
2023-03-02T23:27:07.780Z,52.20
2023-03-02T23:29:39.252Z,62.42
2023-03-02T23:32:07.195Z,63.78
2023-03-02T23:34:37.326Z,43.60
2023-03-02T23:37:04.994Z,53.85
2023-03-02T23:39:32.619Z,62.05
2023-03-02T23:42:00.410Z,53.10
2023-03-02T23:44:28.159Z,50.97
2023-03-02T23:46:55.692Z,54.65
2023-03-02T23:49:23.160Z,57.30
2023-03-02T23:51:50.871Z,53.35
2023-03-02T23:54:18.425Z,49.67
2023-03-02T23:56:45.805Z,54.78
2023-03-02T23:59:13.294Z,54.75
